San Margherita, Ohio
Current Conditions -  °F | °C
As of 7:50 AM on Tuesday 21 Oct 2014 (Local Time) from KTZR Reporting Station
Overcast Overcast  
Wind Chill: 45°   Ceiling: 2100
Heat Index: 48°   Visibility: 7mi
Dew Point: 48°   Wind: 7mph
Humidity: 100%   Direction: 300°WNW
Pressure: 29.93"   Gusts: NA
Location:  39.9614°N, 83.083°W
Report Text: KTZR 211150Z 30006KT 7SM SCT011 BKN021 OVC040 09/09 A2993
Loading
Personal Weather Stations






























Interactive Weather Map
Tropical Storm Tracking
New forecast layout! Learn more

10-Day Weather Forecast

Advertisements
Track Severe Weather on mobile